createdAt,value
2022-08-31T00:01:28.173Z,98608.19
2022-08-31T00:04:32.393Z,98602.66
2022-08-31T00:07:36.530Z,98612.59
2022-08-31T00:10:43.226Z,98600.28
2022-08-31T00:13:47.711Z,98599.47
2022-08-31T00:16:51.846Z,98605.00
2022-08-31T00:19:54.454Z,98610.53
2022-08-31T00:22:58.521Z,98612.13
2022-08-31T00:26:01.155Z,98610.13
2022-08-31T00:29:04.795Z,98608.88
2022-08-31T00:32:07.645Z,98605.72
2022-08-31T00:35:10.558Z,98608.81
2022-08-31T00:38:17.661Z,98617.13
2022-08-31T00:41:22.173Z,98625.88
2022-08-31T00:44:25.023Z,98652.22
2022-08-31T00:47:27.962Z,98664.28
2022-08-31T00:50:30.652Z,98671.00
2022-08-31T00:53:34.749Z,98678.34
2022-08-31T00:56:37.917Z,98703.59
2022-08-31T00:59:41.020Z,98697.25
2022-08-31T01:02:43.794Z,98699.16
2022-08-31T01:05:47.098Z,98682.59
2022-08-31T01:08:50.908Z,98684.44
2022-08-31T01:11:54.139Z,98681.97
2022-08-31T01:14:57.434Z,98685.69
2022-08-31T01:18:02.370Z,98681.25
2022-08-31T01:21:14.314Z,98689.25
2022-08-31T01:24:18.904Z,98712.13
2022-08-31T01:27:25.904Z,98701.47
2022-08-31T01:30:28.471Z,98707.56
2022-08-31T01:33:31.411Z,98704.22
2022-08-31T01:36:35.533Z,98698.09
2022-08-31T01:39:39.564Z,98700.09
2022-08-31T01:42:42.194Z,98703.59
2022-08-31T01:45:45.324Z,98697.88
2022-08-31T01:48:49.100Z,98691.84
2022-08-31T01:51:53.609Z,98683.06
2022-08-31T01:54:57.991Z,98691.41
2022-08-31T01:58:01.506Z,98694.59
2022-08-31T02:01:04.864Z,98688.94
2022-08-31T02:04:29.948Z,98690.59
2022-08-31T02:07:33.003Z,98691.78
2022-08-31T02:10:37.534Z,98687.56
2022-08-31T02:13:40.337Z,98688.00
2022-08-31T02:16:43.096Z,98684.16
2022-08-31T02:19:45.895Z,98683.72
2022-08-31T02:22:48.706Z,98679.28
2022-08-31T02:25:52.720Z,98694.38
2022-08-31T02:28:55.598Z,98701.00
2022-08-31T02:31:58.658Z,98715.16
2022-08-31T02:35:01.387Z,98706.59
2022-08-31T02:38:04.074Z,98713.72
2022-08-31T02:41:08.960Z,98717.25
2022-08-31T02:44:11.664Z,98715.31
2022-08-31T02:47:14.299Z,98716.66
2022-08-31T02:50:16.897Z,98719.94
2022-08-31T02:53:21.760Z,98720.88
2022-08-31T02:56:25.911Z,98719.09
2022-08-31T02:59:28.648Z,98716.09
2022-08-31T03:02:31.770Z,98714.72
2022-08-31T03:05:35.056Z,98711.75
2022-08-31T03:08:39.535Z,98707.44
2022-08-31T03:11:43.696Z,98714.94
2022-08-31T03:14:46.392Z,98722.09
2022-08-31T03:17:49.206Z,98725.91
2022-08-31T03:20:51.951Z,98730.56
2022-08-31T03:23:54.468Z,98726.91
2022-08-31T03:26:58.653Z,98719.38
2022-08-31T03:30:01.332Z,98718.63
2022-08-31T03:33:04.191Z,98716.75
2022-08-31T03:36:08.136Z,98706.59
2022-08-31T03:39:10.853Z,98711.06
2022-08-31T03:42:14.862Z,98708.63
2022-08-31T03:45:18.217Z,98702.28
2022-08-31T03:48:20.905Z,98709.53
2022-08-31T03:51:23.643Z,98701.66
2022-08-31T03:54:26.488Z,98700.03
2022-08-31T03:57:30.585Z,98709.53
2022-08-31T04:00:33.960Z,98708.72
2022-08-31T04:03:37.001Z,98721.56
2022-08-31T04:06:40.792Z,98728.56
2022-08-31T04:09:43.565Z,98736.47
2022-08-31T04:12:47.586Z,98744.19
2022-08-31T04:15:50.231Z,98742.34
2022-08-31T04:18:56.416Z,98736.25
2022-08-31T04:21:59.141Z,98744.19
2022-08-31T04:25:01.823Z,98743.81
2022-08-31T04:28:06.168Z,98744.97
2022-08-31T04:31:09.266Z,98746.19
2022-08-31T04:34:12.054Z,98740.25
2022-08-31T04:37:14.888Z,98744.75
2022-08-31T04:40:19.791Z,98738.41
2022-08-31T04:43:25.110Z,98742.44
2022-08-31T04:46:28.557Z,98748.25
2022-08-31T04:49:31.488Z,98756.53
2022-08-31T04:52:34.094Z,98757.47
2022-08-31T04:55:40.890Z,98763.34
2022-08-31T04:58:47.665Z,98762.91
2022-08-31T05:01:50.294Z,98766.13
2022-08-31T05:04:53.138Z,98762.63
2022-08-31T05:07:55.895Z,98771.66
2022-08-31T05:10:58.607Z,98770.91
2022-08-31T05:14:04.009Z,98770.97
2022-08-31T05:17:08.032Z,98772.66
2022-08-31T05:20:17.847Z,98774.25
2022-08-31T05:23:20.626Z,98772.00
2022-08-31T05:26:26.776Z,98779.09
2022-08-31T05:29:30.929Z,98775.56
2022-08-31T05:32:34.129Z,98771.13
2022-08-31T05:35:37.554Z,98778.31
2022-08-31T05:38:41.027Z,98788.28
2022-08-31T05:41:47.298Z,98785.13
2022-08-31T05:44:51.307Z,98798.22
2022-08-31T05:47:54.009Z,98797.25
2022-08-31T05:50:56.552Z,98802.47
2022-08-31T05:54:00.578Z,98808.88
2022-08-31T05:57:03.832Z,98805.00
2022-08-31T06:00:09.581Z,98807.28
2022-08-31T06:03:12.625Z,98809.59
2022-08-31T06:06:16.200Z,98806.78
2022-08-31T06:09:18.920Z,98812.00
2022-08-31T06:12:25.576Z,98812.16
2022-08-31T06:15:29.550Z,98807.72
2022-08-31T06:18:32.124Z,98818.09
2022-08-31T06:21:36.958Z,98816.78
2022-08-31T06:24:39.679Z,98818.09
2022-08-31T06:27:44.122Z,98820.06
2022-08-31T06:30:55.234Z,98824.91
2022-08-31T06:33:59.611Z,98818.09
2022-08-31T06:37:02.220Z,98825.81
2022-08-31T06:40:05.342Z,98825.06
2022-08-31T06:43:08.409Z,98827.03
2022-08-31T06:46:14.127Z,98828.34
2022-08-31T06:49:17.064Z,98828.41
2022-08-31T06:52:21.056Z,98832.78
2022-08-31T06:55:24.442Z,98830.13
2022-08-31T06:58:27.090Z,98826.19
2022-08-31T07:01:35.289Z,98828.66
2022-08-31T07:04:40.021Z,98820.97
2022-08-31T07:07:42.631Z,98832.22
2022-08-31T07:10:45.347Z,98835.47
2022-08-31T07:13:48.530Z,98839.81
2022-08-31T07:16:54.307Z,98840.91
2022-08-31T07:19:56.895Z,98843.91
2022-08-31T07:22:59.635Z,98845.34
2022-08-31T07:26:05.277Z,98848.25
2022-08-31T07:29:10.062Z,98853.94
2022-08-31T07:32:15.690Z,98860.38
2022-08-31T07:35:18.708Z,98855.44
2022-08-31T07:38:39.151Z,98861.00
2022-08-31T07:41:59.522Z,98859.50
2022-08-31T07:45:05.439Z,98856.44
2022-08-31T07:48:09.660Z,98850.00
2022-08-31T07:51:15.096Z,98853.94
2022-08-31T07:54:20.552Z,98854.88
2022-08-31T07:57:25.833Z,98845.78
2022-08-31T08:00:33.073Z,98845.16
2022-08-31T08:03:37.014Z,98854.19
2022-08-31T08:06:40.231Z,98853.59
2022-08-31T08:09:42.924Z,98855.13
2022-08-31T08:12:48.428Z,98853.06
2022-08-31T08:15:53.988Z,98854.81
2022-08-31T08:18:58.093Z,98864.50
2022-08-31T08:22:02.825Z,98873.13
2022-08-31T08:25:07.003Z,98874.41
2022-08-31T08:28:29.020Z,98880.78
2022-08-31T08:31:33.814Z,98876.28
2022-08-31T08:34:43.379Z,98884.84
2022-08-31T08:37:58.633Z,98884.53
2022-08-31T08:41:06.934Z,98884.84
2022-08-31T08:44:11.350Z,98883.72
2022-08-31T08:47:23.914Z,98893.81
2022-08-31T08:50:29.734Z,98885.09
2022-08-31T08:53:33.220Z,98890.41
2022-08-31T08:56:47.577Z,98890.66
2022-08-31T08:59:51.017Z,98907.06
2022-08-31T09:02:58.318Z,98901.38
2022-08-31T09:06:10.493Z,98911.91
2022-08-31T09:09:30.690Z,98908.09
2022-08-31T09:12:42.111Z,98915.41
2022-08-31T09:15:53.009Z,98911.63
2022-08-31T09:18:58.073Z,98913.94
2022-08-31T09:22:03.098Z,98913.66
2022-08-31T09:25:06.407Z,98907.44
2022-08-31T09:28:11.178Z,98913.75
2022-08-31T09:31:32.662Z,98916.31
2022-08-31T09:34:38.564Z,98910.34
2022-08-31T09:37:46.089Z,98910.78
2022-08-31T09:40:50.558Z,98913.41
2022-08-31T09:43:55.291Z,98907.09
2022-08-31T09:47:01.949Z,98909.53
2022-08-31T09:50:08.337Z,98919.75
2022-08-31T09:53:34.781Z,98922.81
2022-08-31T09:56:55.528Z,98920.53
2022-08-31T09:59:58.398Z,98918.09
2022-08-31T10:03:08.864Z,98919.91
2022-08-31T10:06:26.348Z,98915.63
2022-08-31T10:09:36.101Z,98922.19
2022-08-31T10:12:42.295Z,98919.59
2022-08-31T10:15:50.799Z,98916.72
2022-08-31T10:18:59.239Z,98915.56
2022-08-31T10:22:04.693Z,98917.97
2022-08-31T10:25:15.321Z,98919.16
2022-08-31T10:28:21.685Z,98914.38
2022-08-31T10:31:30.063Z,98917.53
2022-08-31T10:34:53.188Z,98924.06
2022-08-31T10:37:59.938Z,98915.16
2022-08-31T10:41:10.821Z,98921.91
2022-08-31T10:44:18.213Z,98920.59
2022-08-31T10:47:34.249Z,98910.66
2022-08-31T10:50:45.300Z,98914.31
2022-08-31T10:53:55.400Z,98912.69
2022-08-31T10:57:07.323Z,98927.63
2022-08-31T11:00:34.769Z,98915.72
2022-08-31T11:03:57.431Z,98921.91
2022-08-31T11:07:03.760Z,98915.34
2022-08-31T11:10:20.061Z,98926.38
2022-08-31T11:13:39.476Z,98922.59
2022-08-31T11:16:55.098Z,98930.09
2022-08-31T11:20:12.182Z,98926.09
2022-08-31T11:23:27.888Z,98913.81
2022-08-31T11:26:45.131Z,98924.19
2022-08-31T11:29:58.148Z,98919.25
2022-08-31T11:33:07.622Z,98910.56
2022-08-31T11:36:10.296Z,98905.72
2022-08-31T11:39:40.197Z,98911.53
2022-08-31T11:43:01.107Z,98917.72
2022-08-31T11:46:37.869Z,98913.34
2022-08-31T11:49:48.486Z,98903.94
2022-08-31T11:52:53.414Z,98906.84
2022-08-31T11:56:03.915Z,98906.00
2022-08-31T11:59:26.535Z,98903.63
2022-08-31T12:02:45.451Z,98904.81
2022-08-31T12:05:58.013Z,98897.91
2022-08-31T12:09:15.594Z,98896.28
2022-08-31T12:12:29.294Z,98897.78
2022-08-31T12:15:46.809Z,98890.72
2022-08-31T12:19:01.337Z,98898.97
2022-08-31T12:22:34.955Z,98897.91
2022-08-31T12:25:44.019Z,98882.84
2022-08-31T12:29:01.920Z,98886.03
2022-08-31T12:32:11.477Z,98883.31
2022-08-31T12:35:17.687Z,98892.50
2022-08-31T12:38:23.625Z,98883.19
2022-08-31T12:41:26.349Z,98874.50
2022-08-31T12:44:32.917Z,98883.13
2022-08-31T12:47:43.075Z,98878.97
2022-08-31T12:50:49.911Z,98875.88
2022-08-31T12:54:06.086Z,98878.25
2022-08-31T12:57:13.156Z,98875.31
2022-08-31T13:00:25.872Z,98874.53
2022-08-31T13:03:30.721Z,98863.63
2022-08-31T13:06:35.382Z,98861.50
2022-08-31T13:09:40.638Z,98861.09
2022-08-31T13:12:49.205Z,98863.75
2022-08-31T13:15:53.066Z,98857.56
2022-08-31T13:19:00.289Z,98857.94
2022-08-31T13:22:06.095Z,98856.88
2022-08-31T13:25:16.430Z,98847.16
2022-08-31T13:28:26.228Z,98853.66
2022-08-31T13:31:31.442Z,98844.22
2022-08-31T13:34:39.334Z,98843.88
2022-08-31T13:37:45.791Z,98838.47
2022-08-31T13:40:52.465Z,98822.72
2022-08-31T13:44:01.256Z,98814.78
2022-08-31T13:47:13.012Z,98815.81
2022-08-31T13:50:21.883Z,98803.53
2022-08-31T13:53:39.479Z,98796.59
2022-08-31T13:56:58.755Z,98807.66
2022-08-31T14:00:27.333Z,98797.47
2022-08-31T14:03:33.036Z,98803.50
2022-08-31T14:06:38.054Z,98793.09
2022-08-31T14:09:43.318Z,98789.56
2022-08-31T14:12:50.530Z,98785.88
2022-08-31T14:15:56.206Z,98785.97
2022-08-31T14:18:59.757Z,98787.66
2022-08-31T14:22:17.177Z,98777.81
2022-08-31T14:25:22.163Z,98771.53
2022-08-31T14:28:37.218Z,98772.22
2022-08-31T14:31:45.247Z,98771.72
2022-08-31T14:34:49.110Z,98765.91
2022-08-31T14:37:51.712Z,98762.47
2022-08-31T14:40:54.432Z,98755.16
2022-08-31T14:44:10.010Z,98760.50
2022-08-31T14:47:12.782Z,98747.94
2022-08-31T14:50:18.751Z,98747.50
2022-08-31T14:53:21.992Z,98743.44
2022-08-31T14:56:33.149Z,98744.38
2022-08-31T14:59:39.641Z,98741.25
2022-08-31T15:02:43.738Z,98729.03
2022-08-31T15:05:48.905Z,98736.91
2022-08-31T15:08:52.035Z,98732.56
2022-08-31T15:11:58.002Z,98742.41
2022-08-31T15:15:01.890Z,98760.22
2022-08-31T15:18:04.907Z,98770.72
2022-08-31T15:21:07.612Z,98762.38
2022-08-31T15:24:10.722Z,98756.28
2022-08-31T15:27:15.343Z,98770.56
2022-08-31T15:30:20.145Z,98760.63
2022-08-31T15:33:22.871Z,98754.09
2022-08-31T15:36:27.089Z,98751.94
2022-08-31T15:39:32.566Z,98752.53
2022-08-31T15:42:38.312Z,98749.66
2022-08-31T15:45:42.602Z,98740.59
2022-08-31T15:48:45.877Z,98735.34
2022-08-31T15:51:49.153Z,98747.81
2022-08-31T15:54:52.158Z,98736.88
2022-08-31T15:57:55.731Z,98729.34
2022-08-31T16:00:59.810Z,98738.56
2022-08-31T16:04:04.938Z,98731.00
2022-08-31T16:07:09.471Z,98723.47
2022-08-31T16:10:15.636Z,98722.69
2022-08-31T16:13:22.002Z,98718.69
2022-08-31T16:16:27.450Z,98714.25
2022-08-31T16:19:36.169Z,98715.59
2022-08-31T16:22:39.146Z,98711.34
2022-08-31T16:25:48.068Z,98712.28
2022-08-31T16:28:51.594Z,98713.78
2022-08-31T16:31:56.406Z,98705.88
2022-08-31T16:35:00.001Z,98707.91
2022-08-31T16:38:02.714Z,98703.41
2022-08-31T16:41:06.429Z,98715.03
2022-08-31T16:44:19.703Z,98714.94
2022-08-31T16:47:24.415Z,98711.69
2022-08-31T16:50:26.094Z,98714.88
2022-08-31T16:53:28.907Z,98723.00
2022-08-31T16:56:33.346Z,98714.88
2022-08-31T16:59:36.898Z,98724.94
2022-08-31T17:02:41.114Z,98714.06
2022-08-31T17:05:44.013Z,98708.00
2022-08-31T17:08:47.156Z,98715.75
2022-08-31T17:11:55.527Z,98715.44
2022-08-31T17:15:00.519Z,98707.50
2022-08-31T17:18:04.701Z,98712.66
2022-08-31T17:21:07.726Z,98709.50
2022-08-31T17:24:14.915Z,98707.16
2022-08-31T17:27:20.579Z,98701.19
2022-08-31T17:30:23.261Z,98715.09
2022-08-31T17:33:27.391Z,98712.31
2022-08-31T17:36:37.377Z,98710.72
2022-08-31T17:39:40.828Z,98711.47
2022-08-31T17:42:44.428Z,98709.72
2022-08-31T17:45:46.966Z,98712.72
2022-08-31T17:48:51.332Z,98715.78
2022-08-31T17:51:55.532Z,98723.63
2022-08-31T17:55:00.211Z,98721.09
2022-08-31T17:58:02.925Z,98720.88
2022-08-31T18:01:07.286Z,98731.34
2022-08-31T18:04:12.379Z,98737.75
2022-08-31T18:07:15.373Z,98739.19
2022-08-31T18:10:19.060Z,98734.28
2022-08-31T18:13:21.895Z,98747.34
2022-08-31T18:16:27.409Z,98743.13
2022-08-31T18:19:33.369Z,98754.13
2022-08-31T18:22:35.989Z,98763.06
2022-08-31T18:25:40.961Z,98764.41
2022-08-31T18:28:44.125Z,98760.78
2022-08-31T18:31:50.133Z,98766.63
2022-08-31T18:34:57.383Z,98762.47
2022-08-31T18:38:00.437Z,98762.19
2022-08-31T18:41:23.426Z,98770.50
2022-08-31T18:44:43.877Z,98765.00
2022-08-31T18:48:07.235Z,98771.22
2022-08-31T18:51:13.635Z,98766.38
2022-08-31T18:54:19.258Z,98778.41
2022-08-31T18:57:24.538Z,98780.28
2022-08-31T19:00:28.971Z,98781.91
2022-08-31T19:03:31.952Z,98781.84
2022-08-31T19:06:36.225Z,98769.31
2022-08-31T19:09:39.357Z,98782.59
2022-08-31T19:12:43.555Z,98782.50
2022-08-31T19:15:47.029Z,98778.75
2022-08-31T19:18:50.607Z,98775.47
2022-08-31T19:21:55.468Z,98776.88
2022-08-31T19:24:58.241Z,98779.69
2022-08-31T19:28:02.028Z,98774.97
2022-08-31T19:31:06.561Z,98782.69
2022-08-31T19:34:10.223Z,98777.97
2022-08-31T19:37:16.040Z,98773.91
2022-08-31T19:40:19.406Z,98787.25
2022-08-31T19:46:52.509Z,98771.72
2022-08-31T19:49:56.075Z,98773.66
2022-08-31T19:53:01.684Z,98773.59
2022-08-31T19:56:06.504Z,98782.47
2022-08-31T19:59:10.233Z,98784.31
2022-08-31T20:02:14.281Z,98775.97
2022-08-31T20:05:17.616Z,98771.44
2022-08-31T20:08:21.986Z,98767.09
2022-08-31T20:11:30.431Z,98765.34
2022-08-31T20:14:33.356Z,98771.94
2022-08-31T20:17:36.229Z,98767.06
2022-08-31T20:20:43.540Z,98765.47
2022-08-31T20:23:49.944Z,98757.50
2022-08-31T20:26:57.045Z,98764.81
2022-08-31T20:30:00.435Z,98755.13
2022-08-31T20:33:03.482Z,98757.91
2022-08-31T20:36:18.818Z,98756.03
2022-08-31T20:39:25.485Z,98765.75
2022-08-31T20:42:28.351Z,98756.81
2022-08-31T20:45:31.118Z,98762.09
2022-08-31T20:48:59.789Z,98755.44
2022-08-31T20:52:02.854Z,98756.25
2022-08-31T20:55:08.423Z,98768.63
2022-08-31T20:58:11.432Z,98775.41
2022-08-31T21:01:15.983Z,98779.28
2022-08-31T21:04:19.286Z,98778.47
2022-08-31T21:07:23.284Z,98784.81
2022-08-31T21:10:37.067Z,98774.22
2022-08-31T21:13:40.774Z,98773.09
2022-08-31T21:16:43.902Z,98773.34
2022-08-31T21:19:46.726Z,98770.22
2022-08-31T21:22:49.295Z,98771.03
2022-08-31T21:25:55.211Z,98768.69
2022-08-31T21:28:58.011Z,98766.13
2022-08-31T21:32:03.837Z,98776.41
2022-08-31T21:35:07.371Z,98762.81
2022-08-31T21:38:13.419Z,98761.22
2022-08-31T21:41:17.980Z,98767.47
2022-08-31T21:44:21.746Z,98766.81
2022-08-31T21:47:24.495Z,98767.19
2022-08-31T21:50:28.432Z,98781.81
2022-08-31T21:53:31.124Z,98780.94
2022-08-31T21:56:39.289Z,98784.56
2022-08-31T21:59:42.959Z,98786.72
2022-08-31T22:02:46.901Z,98802.44
2022-08-31T22:05:50.316Z,98796.38
2022-08-31T22:08:55.203Z,98803.31
2022-08-31T22:12:03.075Z,98797.00
2022-08-31T22:15:10.269Z,98804.53
2022-08-31T22:21:36.707Z,98809.25
2022-08-31T22:24:39.523Z,98810.09
2022-08-31T22:27:46.652Z,98804.16
2022-08-31T22:30:49.534Z,98798.16
2022-08-31T22:33:52.903Z,98802.75
2022-08-31T22:36:56.619Z,98802.75
2022-08-31T22:39:59.286Z,98808.94
2022-08-31T22:43:05.735Z,98817.38
2022-08-31T22:46:11.605Z,98807.66
2022-08-31T22:49:14.822Z,98819.81
2022-08-31T22:52:17.564Z,98813.97
2022-08-31T22:55:20.269Z,98817.19
2022-08-31T22:58:24.282Z,98815.94
2022-08-31T23:01:29.341Z,98815.38
2022-08-31T23:04:34.173Z,98813.16
2022-08-31T23:07:36.919Z,98822.38
2022-08-31T23:10:40.265Z,98816.53
2022-08-31T23:13:53.173Z,98800.06
2022-08-31T23:16:59.194Z,98805.91
2022-08-31T23:20:03.285Z,98808.09
2022-08-31T23:23:06.197Z,98797.00
2022-08-31T23:26:10.714Z,98795.63
2022-08-31T23:29:18.047Z,98792.03
2022-08-31T23:32:23.363Z,98784.50
2022-08-31T23:35:28.325Z,98779.81
2022-08-31T23:38:32.513Z,98777.25
2022-08-31T23:41:39.038Z,98772.56
2022-08-31T23:44:46.350Z,98775.31
2022-08-31T23:47:50.062Z,98772.22
2022-08-31T23:50:53.049Z,98772.91
2022-08-31T23:53:56.957Z,98774.06
2022-08-31T23:57:00.035Z,98776.94
